Tokuharu Maru No.8 — JD3710 — position and weather

sailwx.info

Track history (hours):
 
Tides and Currents Weather Stations Pressure Air Temp Water Temp Dewpoint Dewpoint Depression Visibility Wind Speed Wind Dir Waves Ship Positions

Tokuharu Maru No.8

Last reported at 2018-Jun-24 14:43 UTC. Time now 2018-Jun-24 16:32 UTC.
Position N 33°44' E 134°44'.

Length 82 m; draft 5 m.

Type: Cargo ship. MMSI: 431005534.

Date/timePositionNaut miles runAvg speedWind from/ knotsBaromVisibWave heightAir tempDewpointWater temp
2018-Jun-24 14:43N 33°44' E 134°44'2011.8
2018-Jun-24 13:01N 34°02' E 134°54'012.2
2018-Jun-24 12:59N 34°02' E 134°54'612.1
2018-Jun-24 12:30N 34°08' E 134°56'612.1
2018-Jun-24 12:00N 34°14' E 134°58'611.4
2018-Jun-24 11:30N 34°19' E 134°59'611.4
2018-Jun-24 11:00N 34°25' E 135°01'611.8
2018-Jun-24 10:30N 34°31' E 135°02'510.4
2018-Jun-24 10:00N 34°36' E 135°03'5 8.9
2018-Jun-24 09:28N 34°36' E 134°57'510.3
2018-Jun-24 08:57N 34°39' E 134°51'3 0.1
2018-Jun-22 09:35N 34°42' E 134°52'1 8.7
2018-Jun-22 09:28N 34°41' E 134°51'2 0.5
2018-Jun-22 06:21N 34°43' E 134°50'0 0.0
2018-Jun-22 05:59N 34°43' E 134°50'3 0.2
2018-Jun-21 19:07N 34°40' E 134°48'211.6
2018-Jun-21 18:59N 34°39' E 134°47'611.5
2018-Jun-21 18:30N 34°36' E 134°41'711.9
2018-Jun-21 17:54N 34°33' E 134°34'512.1
2018-Jun-21 17:30N 34°30' E 134°29'611.8
2018-Jun-21 16:59N 34°26' E 134°23'4 0.1
2018-Jun-19 17:14N 34°29' E 134°27'311.7
2018-Jun-19 17:00N 34°30' E 134°30'611.9
2018-Jun-19 16:29N 34°34' E 134°36'612.4
2018-Jun-19 16:00N 34°37' E 134°42'712.3
2018-Jun-19 15:26N 34°41' E 134°49'2 1.7
2018-Jun-19 14:30N 34°43' E 134°50'0 0.0
2018-Jun-19 13:48N 34°43' E 134°50'0 0.0
2018-Jun-19 12:38N 34°43' E 134°50'10 1.1
2018-Jun-19 04:14N 34°37' E 134°41'311.6
2018-Jun-19 03:59N 34°35' E 134°38'611.7
2018-Jun-19 03:28N 34°31' E 134°32'511.9
2018-Jun-19 03:00N 34°28' E 134°26'5 0.2
2018-Jun-17 21:20N 34°25' E 134°21'512.2
2018-Jun-17 20:55N 34°28' E 134°27'512.2
2018-Jun-17 20:30N 34°31' E 134°32'612.1
2018-Jun-17 20:00N 34°34' E 134°38'612.0
2018-Jun-17 19:29N 34°38' E 134°44'612.0
2018-Jun-17 19:00N 34°41' E 134°50'1 1.9
2018-Jun-17 18:24N 34°43' E 134°50'0 0.0
2018-Jun-17 16:03N 34°43' E 134°50'0 0.0
2018-Jun-17 15:58N 34°43' E 134°50'0 0.0
2018-Jun-17 15:27N 34°43' E 134°50'0 0.0
2018-Jun-17 15:00N 34°43' E 134°50'0 0.0
2018-Jun-17 14:29N 34°43' E 134°50'1 1.2
2018-Jun-17 13:20N 34°41' E 134°49'3 5.1
2018-Jun-17 12:43N 34°38' E 134°49'312.8
2018-Jun-17 12:29N 34°37' E 134°53'713.3
2018-Jun-17 11:57N 34°37' E 135°01'510.2
2018-Jun-17 11:30N 34°34' E 135°05'612.1
2018-Jun-17 11:00N 34°28' E 135°02'612.8
2018-Jun-17 10:30N 34°22' E 135°01'612.3
2018-Jun-17 10:00N 34°16' E 134°60'510.1
2018-Jun-17 09:30N 34°10' E 134°59'611.3
2018-Jun-17 09:00N 34°05' E 134°58'612.0
2018-Jun-17 08:30N 33°59' E 134°56'4 0.2
2018-Jun-16 12:06N 34°03' E 134°54'112.0
2018-Jun-16 11:59N 34°04' E 134°55'612.2
2018-Jun-16 11:30N 34°10' E 134°57'612.0
2018-Jun-16 11:00N 34°16' E 134°58'510.5
2018-Jun-16 10:30N 34°21' E 134°59'611.0
2018-Jun-16 10:00N 34°26' E 135°01'510.9
2018-Jun-16 09:30N 34°31' E 135°02'510.0
2018-Jun-16 08:58N 34°37' E 135°01'612.9
2018-Jun-16 08:30N 34°37' E 134°54'612.0
2018-Jun-16 08:00N 34°42' E 134°50'0 0.0
2018-Jun-16 02:10N 34°43' E 134°50'0 0.5
2018-Jun-16 01:42N 34°42' E 134°50'0 0.5
2018-Jun-16 01:29N 34°42' E 134°50'0 0.0
2018-Jun-16 01:00N 34°42' E 134°50'0 0.0
2018-Jun-15 23:25N 34°42' E 134°50'0 0.0
2018-Jun-15 23:00N 34°42' E 134°50'0 0.0
2018-Jun-15 22:30N 34°42' E 134°50'0 0.1
2018-Jun-15 18:34N 34°42' E 134°50'1 9.5
2018-Jun-15 18:26N 34°41' E 134°50'4 8.8
2018-Jun-15 17:57N 34°38' E 134°54'7 9.3
2018-Jun-15 17:13N 34°37' E 135°02'210.0
2018-Jun-15 17:01N 34°36' E 135°04'510.5
2018-Jun-15 16:30N 34°31' E 135°04'611.3
2018-Jun-15 16:00N 34°25' E 135°03'611.3
2018-Jun-15 15:30N 34°20' E 135°00'611.4
2018-Jun-15 15:00N 34°14' E 134°59'611.6
2018-Jun-15 14:31N 34°09' E 134°57'611.6
2018-Jun-15 14:01N 34°03' E 134°55'2 0.1
2018-Jun-14 17:33N 34°02' E 134°54'112.5
2018-Jun-14 17:30N 34°02' E 134°54'712.7
2018-Jun-14 16:59N 34°09' E 134°56'613.3
2018-Jun-14 16:30N 34°15' E 134°58'613.1
2018-Jun-14 16:00N 34°21' E 134°60'611.8
2018-Jun-14 15:30N 34°27' E 135°01'612.8
2018-Jun-14 15:00N 34°33' E 135°03'  
Track history (hours):
 
Tides and Currents Weather Stations Pressure Air Temp Water Temp Dewpoint Dewpoint Depression Visibility Wind Speed Wind Dir Waves Ship Positions

Tokuharu Maru No.8

Last reported at 2018-Jun-24 14:43 UTC. Time now 2018-Jun-24 16:32 UTC.
Position N 33°44' E 134°44'.

Length 82 m; draft 5 m.

Type: Cargo ship. MMSI: 431005534.

Date/timePositionNaut miles runAvg speedWind from/ knotsBaromVisibWave heightAir tempDewpointWater temp
2018-Jun-24 14:43N 33°44' E 134°44'2011.8
2018-Jun-24 13:01N 34°02' E 134°54'012.2
2018-Jun-24 12:59N 34°02' E 134°54'612.1
2018-Jun-24 12:30N 34°08' E 134°56'612.1
2018-Jun-24 12:00N 34°14' E 134°58'611.4
2018-Jun-24 11:30N 34°19' E 134°59'611.4
2018-Jun-24 11:00N 34°25' E 135°01'611.8
2018-Jun-24 10:30N 34°31' E 135°02'510.4
2018-Jun-24 10:00N 34°36' E 135°03'5 8.9
2018-Jun-24 09:28N 34°36' E 134°57'510.3
2018-Jun-24 08:57N 34°39' E 134°51'3 0.1
2018-Jun-22 09:35N 34°42' E 134°52'1 8.7
2018-Jun-22 09:28N 34°41' E 134°51'2 0.5
2018-Jun-22 06:21N 34°43' E 134°50'0 0.0
2018-Jun-22 05:59N 34°43' E 134°50'3 0.2
2018-Jun-21 19:07N 34°40' E 134°48'211.6
2018-Jun-21 18:59N 34°39' E 134°47'611.5
2018-Jun-21 18:30N 34°36' E 134°41'711.9
2018-Jun-21 17:54N 34°33' E 134°34'512.1
2018-Jun-21 17:30N 34°30' E 134°29'611.8
2018-Jun-21 16:59N 34°26' E 134°23'4 0.1
2018-Jun-19 17:14N 34°29' E 134°27'311.7
2018-Jun-19 17:00N 34°30' E 134°30'611.9
2018-Jun-19 16:29N 34°34' E 134°36'612.4
2018-Jun-19 16:00N 34°37' E 134°42'712.3
2018-Jun-19 15:26N 34°41' E 134°49'2 1.7
2018-Jun-19 14:30N 34°43' E 134°50'0 0.0
2018-Jun-19 13:48N 34°43' E 134°50'0 0.0
2018-Jun-19 12:38N 34°43' E 134°50'10 1.1
2018-Jun-19 04:14N 34°37' E 134°41'311.6
2018-Jun-19 03:59N 34°35' E 134°38'611.7
2018-Jun-19 03:28N 34°31' E 134°32'511.9
2018-Jun-19 03:00N 34°28' E 134°26'5 0.2
2018-Jun-17 21:20N 34°25' E 134°21'512.2
2018-Jun-17 20:55N 34°28' E 134°27'512.2
2018-Jun-17 20:30N 34°31' E 134°32'612.1
2018-Jun-17 20:00N 34°34' E 134°38'612.0
2018-Jun-17 19:29N 34°38' E 134°44'612.0
2018-Jun-17 19:00N 34°41' E 134°50'1 1.9
2018-Jun-17 18:24N 34°43' E 134°50'0 0.0
2018-Jun-17 16:03N 34°43' E 134°50'0 0.0
2018-Jun-17 15:58N 34°43' E 134°50'0 0.0
2018-Jun-17 15:27N 34°43' E 134°50'0 0.0
2018-Jun-17 15:00N 34°43' E 134°50'0 0.0
2018-Jun-17 14:29N 34°43' E 134°50'1 1.2
2018-Jun-17 13:20N 34°41' E 134°49'3 5.1
2018-Jun-17 12:43N 34°38' E 134°49'312.8
2018-Jun-17 12:29N 34°37' E 134°53'713.3
2018-Jun-17 11:57N 34°37' E 135°01'510.2
2018-Jun-17 11:30N 34°34' E 135°05'612.1
2018-Jun-17 11:00N 34°28' E 135°02'612.8
2018-Jun-17 10:30N 34°22' E 135°01'612.3
2018-Jun-17 10:00N 34°16' E 134°60'510.1
2018-Jun-17 09:30N 34°10' E 134°59'611.3
2018-Jun-17 09:00N 34°05' E 134°58'612.0
2018-Jun-17 08:30N 33°59' E 134°56'4 0.2
2018-Jun-16 12:06N 34°03' E 134°54'112.0
2018-Jun-16 11:59N 34°04' E 134°55'612.2
2018-Jun-16 11:30N 34°10' E 134°57'612.0
2018-Jun-16 11:00N 34°16' E 134°58'510.5
2018-Jun-16 10:30N 34°21' E 134°59'611.0
2018-Jun-16 10:00N 34°26' E 135°01'510.9
2018-Jun-16 09:30N 34°31' E 135°02'510.0
2018-Jun-16 08:58N 34°37' E 135°01'612.9
2018-Jun-16 08:30N 34°37' E 134°54'612.0
2018-Jun-16 08:00N 34°42' E 134°50'0 0.0
2018-Jun-16 02:10N 34°43' E 134°50'0 0.5
2018-Jun-16 01:42N 34°42' E 134°50'0 0.5
2018-Jun-16 01:29N 34°42' E 134°50'0 0.0
2018-Jun-16 01:00N 34°42' E 134°50'0 0.0
2018-Jun-15 23:25N 34°42' E 134°50'0 0.0
2018-Jun-15 23:00N 34°42' E 134°50'0 0.0
2018-Jun-15 22:30N 34°42' E 134°50'0 0.1
2018-Jun-15 18:34N 34°42' E 134°50'1 9.5
2018-Jun-15 18:26N 34°41' E 134°50'4 8.8
2018-Jun-15 17:57N 34°38' E 134°54'7 9.3
2018-Jun-15 17:13N 34°37' E 135°02'210.0
2018-Jun-15 17:01N 34°36' E 135°04'510.5
2018-Jun-15 16:30N 34°31' E 135°04'611.3
2018-Jun-15 16:00N 34°25' E 135°03'611.3
2018-Jun-15 15:30N 34°20' E 135°00'611.4
2018-Jun-15 15:00N 34°14' E 134°59'611.6
2018-Jun-15 14:31N 34°09' E 134°57'611.6
2018-Jun-15 14:01N 34°03' E 134°55'2 0.1
2018-Jun-14 17:33N 34°02' E 134°54'112.5
2018-Jun-14 17:30N 34°02' E 134°54'712.7
2018-Jun-14 16:59N 34°09' E 134°56'613.3
2018-Jun-14 16:30N 34°15' E 134°58'613.1
2018-Jun-14 16:00N 34°21' E 134°60'611.8
2018-Jun-14 15:30N 34°27' E 135°01'612.8
2018-Jun-14 15:00N 34°33' E 135°03'  

Dump ship's entire track history